createdAt,value
2022-12-25T00:01:16.534Z,128.27
2022-12-25T00:03:46.982Z,151.50
2022-12-25T00:06:18.927Z,154.88
2022-12-25T00:08:47.582Z,144.05
2022-12-25T00:11:19.867Z,135.98
2022-12-25T00:13:49.284Z,126.68
2022-12-25T00:16:21.253Z,124.43
2022-12-25T00:18:51.862Z,127.40
2022-12-25T00:21:21.753Z,141.38
2022-12-25T00:23:57.082Z,133.20
2022-12-25T00:28:56.538Z,142.60
2022-12-25T00:31:26.994Z,135.50
2022-12-25T00:33:57.164Z,139.05
2022-12-25T00:36:25.882Z,139.60
2022-12-25T00:38:55.083Z,131.20
2022-12-25T00:41:40.323Z,127.25
2022-12-25T00:44:10.340Z,139.82
2022-12-25T00:46:39.328Z,127.03
2022-12-25T00:49:11.294Z,139.32
2022-12-25T00:51:41.560Z,136.85
2022-12-25T00:54:11.274Z,140.57
2022-12-25T00:56:40.166Z,121.25
2022-12-25T00:59:08.737Z,123.47
2022-12-25T01:01:40.448Z,127.63
2022-12-25T01:04:11.680Z,122.32
2022-12-25T01:06:40.708Z,149.00
2022-12-25T01:09:27.211Z,134.98
2022-12-25T01:11:55.763Z,144.25
2022-12-25T01:14:25.529Z,139.32
2022-12-25T01:16:54.258Z,131.77
2022-12-25T01:19:25.752Z,122.10
2022-12-25T01:21:54.391Z,128.38
2022-12-25T01:24:23.209Z,144.43
2022-12-25T01:26:51.860Z,128.75
2022-12-25T01:29:22.636Z,121.70
2022-12-25T01:31:51.469Z,133.52
2022-12-25T01:34:19.954Z,125.72
2022-12-25T01:36:53.341Z,138.13
2022-12-25T01:39:25.588Z,134.80
2022-12-25T01:41:54.527Z,129.93
2022-12-25T01:45:39.012Z,121.32
2022-12-25T01:48:15.806Z,121.72
2022-12-25T01:50:53.017Z,137.43
2022-12-25T01:53:23.395Z,122.80
2022-12-25T01:55:56.448Z,125.63
2022-12-25T01:58:26.035Z,123.93
2022-12-25T02:00:55.263Z,128.02
2022-12-25T02:03:24.864Z,124.47
2022-12-25T02:05:53.878Z,111.32
2022-12-25T02:08:24.771Z,124.55
2022-12-25T02:10:53.092Z,118.72
2022-12-25T02:13:22.070Z,113.10
2022-12-25T02:16:02.134Z,112.03
2022-12-25T02:18:38.740Z,124.50
2022-12-25T02:21:45.550Z,116.95
2022-12-25T02:24:51.069Z,118.38
2022-12-25T02:28:02.263Z,112.30
2022-12-25T02:30:36.867Z,118.18
2022-12-25T02:33:32.940Z,109.70
2022-12-25T02:36:08.482Z,101.43
2022-12-25T02:39:00.166Z,113.03
2022-12-25T02:41:30.620Z,102.50
2022-12-25T02:44:22.422Z,109.75
2022-12-25T02:47:08.993Z,110.95
2022-12-25T02:49:56.187Z,110.55
2022-12-25T02:52:44.321Z,117.57
2022-12-25T02:55:34.828Z,101.93
2022-12-25T02:58:28.409Z,100.28
2022-12-25T03:01:24.103Z,103.75
2022-12-25T03:04:14.148Z,104.93
2022-12-25T03:06:44.314Z,112.13
2022-12-25T03:09:34.422Z,103.65
2022-12-25T03:12:11.174Z,103.63
2022-12-25T03:14:59.419Z,99.53
2022-12-25T03:17:30.461Z,103.00
2022-12-25T03:20:17.352Z,103.35
2022-12-25T03:23:04.921Z,91.43
2022-12-25T03:25:50.993Z,99.88
2022-12-25T03:28:19.582Z,98.45
2022-12-25T03:31:14.141Z,97.25
2022-12-25T03:34:30.756Z,95.28
2022-12-25T03:37:25.959Z,96.03
2022-12-25T03:40:22.604Z,106.97
2022-12-25T03:43:16.903Z,104.70
2022-12-25T03:46:09.283Z,104.60
2022-12-25T03:49:01.277Z,93.95
2022-12-25T03:51:54.338Z,96.68
2022-12-25T03:54:45.442Z,106.13
2022-12-25T03:57:32.894Z,103.03
2022-12-25T04:00:23.885Z,96.72
2022-12-25T04:03:09.678Z,110.05
2022-12-25T04:05:55.651Z,103.03
2022-12-25T04:08:43.001Z,102.90
2022-12-25T04:11:29.034Z,109.82
2022-12-25T04:14:23.278Z,108.43
2022-12-25T04:17:09.079Z,97.22
2022-12-25T04:22:51.980Z,100.32
2022-12-25T04:25:39.438Z,106.38
2022-12-25T04:28:25.295Z,102.40
2022-12-25T04:31:11.727Z,107.05
2022-12-25T04:33:57.719Z,111.20
2022-12-25T04:36:26.207Z,106.45
2022-12-25T04:38:54.697Z,121.55
2022-12-25T04:41:24.421Z,107.35
2022-12-25T04:43:52.943Z,86.78
2022-12-25T04:46:21.412Z,110.03
2022-12-25T04:48:49.881Z,112.13
2022-12-25T04:51:20.657Z,104.50
2022-12-25T04:53:50.868Z,102.90
2022-12-25T04:56:20.746Z,102.50
2022-12-25T04:58:50.694Z,115.68
2022-12-25T05:01:19.290Z,103.47
2022-12-25T05:03:47.793Z,101.30
2022-12-25T05:06:16.316Z,116.03
2022-12-25T05:08:44.864Z,114.78
2022-12-25T05:11:16.832Z,117.45
2022-12-25T05:13:45.838Z,104.18
2022-12-25T05:16:18.340Z,105.80
2022-12-25T05:18:49.325Z,106.45
2022-12-25T05:21:18.095Z,103.43
2022-12-25T05:23:49.589Z,94.80
2022-12-25T05:26:21.096Z,89.30
2022-12-25T05:28:50.451Z,97.55
2022-12-25T05:31:21.435Z,88.00
2022-12-25T05:33:53.025Z,81.65
2022-12-25T05:36:21.879Z,83.50
2022-12-25T05:38:51.112Z,77.60
2022-12-25T05:41:20.015Z,76.07
2022-12-25T05:43:48.797Z,73.25
2022-12-25T05:46:18.004Z,72.03
2022-12-25T05:48:48.416Z,70.97
2022-12-25T05:51:20.146Z,67.78
2022-12-25T05:53:48.859Z,55.60
2022-12-25T05:56:17.169Z,57.63
2022-12-25T05:58:45.701Z,69.05
2022-12-25T06:01:17.922Z,58.85
2022-12-25T06:03:49.098Z,53.00
2022-12-25T06:06:17.522Z,50.58
2022-12-25T06:08:46.174Z,47.15
2022-12-25T06:11:17.031Z,64.45
2022-12-25T06:13:45.498Z,63.22
2022-12-25T06:16:14.439Z,50.88
2022-12-25T06:18:45.859Z,58.78
2022-12-25T06:21:20.079Z,44.45
2022-12-25T06:23:49.437Z,41.58
2022-12-25T06:26:23.392Z,55.25
2022-12-25T06:28:52.328Z,55.17
2022-12-25T06:31:24.218Z,53.92
2022-12-25T06:33:53.246Z,50.97
2022-12-25T06:36:25.818Z,40.58
2022-12-25T06:39:01.674Z,54.90
2022-12-25T06:41:32.063Z,49.20
2022-12-25T06:44:02.673Z,49.88
2022-12-25T06:46:32.220Z,46.47
2022-12-25T06:49:01.638Z,45.75
2022-12-25T06:51:33.296Z,37.95
2022-12-25T06:54:04.022Z,46.83
2022-12-25T06:56:34.327Z,50.38
2022-12-25T06:59:05.731Z,43.35
2022-12-25T07:01:39.011Z,40.78
2022-12-25T07:04:13.380Z,37.75
2022-12-25T07:06:44.226Z,35.90
2022-12-25T07:09:13.060Z,50.70
2022-12-25T07:11:41.440Z,36.88
2022-12-25T07:14:21.824Z,44.20
2022-12-25T07:16:52.655Z,38.63
2022-12-25T07:19:21.154Z,31.73
2022-12-25T07:21:50.985Z,38.28
2022-12-25T07:24:21.644Z,34.33
2022-12-25T07:26:53.319Z,40.08
2022-12-25T07:29:22.045Z,32.67
2022-12-25T07:31:51.338Z,35.03
2022-12-25T07:34:20.648Z,39.63
2022-12-25T07:36:50.875Z,36.63
2022-12-25T07:39:19.507Z,41.17
2022-12-25T07:41:48.873Z,41.08
2022-12-25T07:44:19.646Z,33.05
2022-12-25T07:46:48.596Z,29.85
2022-12-25T07:49:17.280Z,38.92
2022-12-25T07:51:45.687Z,35.75
2022-12-25T07:54:15.908Z,42.40
2022-12-25T07:56:44.548Z,33.28
2022-12-25T07:59:13.087Z,38.42
2022-12-25T08:01:41.564Z,44.15
2022-12-25T08:04:11.760Z,34.53
2022-12-25T08:06:40.987Z,36.35
2022-12-25T08:09:11.621Z,35.15
2022-12-25T08:11:47.054Z,36.13
2022-12-25T08:14:17.253Z,42.10
2022-12-25T08:16:47.400Z,40.75
2022-12-25T08:19:16.293Z,34.72
2022-12-25T08:21:45.073Z,40.70
2022-12-25T08:24:13.451Z,37.83
2022-12-25T08:26:43.430Z,31.33
2022-12-25T08:29:12.671Z,35.25
2022-12-25T08:31:46.463Z,40.42
2022-12-25T08:34:15.846Z,35.35
2022-12-25T08:36:44.631Z,36.33
2022-12-25T08:39:15.104Z,30.98
2022-12-25T08:41:45.993Z,25.83
2022-12-25T08:44:15.059Z,32.00
2022-12-25T08:46:44.445Z,26.90
2022-12-25T08:49:13.619Z,27.58
2022-12-25T08:51:42.438Z,28.73
2022-12-25T08:54:11.282Z,22.80
2022-12-25T08:56:40.195Z,23.35
2022-12-25T08:59:11.849Z,30.80
2022-12-25T09:01:41.127Z,32.38
2022-12-25T09:04:10.337Z,28.77
2022-12-25T09:06:39.772Z,33.55
2022-12-25T09:09:11.609Z,24.83
2022-12-25T09:11:40.405Z,32.08
2022-12-25T09:14:10.911Z,29.10
2022-12-25T09:16:39.892Z,31.38
2022-12-25T09:19:08.781Z,33.00
2022-12-25T09:21:37.906Z,26.17
2022-12-25T09:24:07.400Z,28.75
2022-12-25T09:26:35.983Z,29.92
2022-12-25T09:29:04.655Z,29.15
2022-12-25T09:31:34.931Z,26.92
2022-12-25T09:34:03.712Z,25.75
2022-12-25T09:36:35.587Z,28.65
2022-12-25T09:39:05.044Z,21.42
2022-12-25T09:41:39.475Z,32.88
2022-12-25T09:44:12.582Z,26.02
2022-12-25T09:46:53.276Z,25.73
2022-12-25T09:49:29.497Z,26.02
2022-12-25T09:52:04.366Z,23.60
2022-12-25T09:54:43.547Z,22.98
2022-12-25T09:57:15.321Z,26.30
2022-12-25T09:59:47.682Z,24.52
2022-12-25T10:03:07.688Z,21.08
2022-12-25T10:05:57.062Z,23.30
2022-12-25T10:08:59.596Z,18.55
2022-12-25T10:11:44.581Z,32.05
2022-12-25T10:14:26.902Z,28.17
2022-12-25T10:17:12.986Z,29.05
2022-12-25T10:19:52.045Z,24.98
2022-12-25T10:22:28.690Z,21.35
2022-12-25T10:25:00.142Z,30.50
2022-12-25T10:27:33.686Z,22.95
2022-12-25T10:30:14.491Z,26.73
2022-12-25T10:32:48.920Z,29.23
2022-12-25T10:35:27.704Z,30.40
2022-12-25T10:38:04.268Z,22.98
2022-12-25T10:40:45.593Z,23.23
2022-12-25T10:43:20.033Z,24.65
2022-12-25T10:45:51.121Z,25.97
2022-12-25T10:48:26.583Z,33.63
2022-12-25T10:50:57.891Z,25.48
2022-12-25T10:53:32.398Z,24.05
2022-12-25T10:56:04.370Z,21.37
2022-12-25T10:58:35.341Z,27.27
2022-12-25T11:01:06.896Z,21.10
2022-12-25T11:03:39.298Z,25.20
2022-12-25T11:06:25.575Z,25.02
2022-12-25T11:09:01.398Z,23.27
2022-12-25T11:11:31.347Z,29.65
2022-12-25T11:14:03.434Z,22.55
2022-12-25T11:16:36.552Z,22.08
2022-12-25T11:19:24.045Z,18.38
2022-12-25T11:21:56.879Z,20.15
2022-12-25T11:24:30.528Z,25.30
2022-12-25T11:27:02.863Z,26.33
2022-12-25T11:29:45.161Z,20.88
2022-12-25T11:32:23.958Z,18.92
2022-12-25T11:34:54.816Z,21.33
2022-12-25T11:37:32.085Z,21.17
2022-12-25T11:40:01.256Z,21.95
2022-12-25T11:42:37.749Z,24.40
2022-12-25T11:45:12.612Z,16.85
2022-12-25T11:47:47.380Z,21.02
2022-12-25T11:50:27.060Z,22.95
2022-12-25T11:53:01.272Z,18.90
2022-12-25T11:55:41.191Z,20.92
2022-12-25T11:58:19.648Z,22.17
2022-12-25T12:00:51.521Z,21.90
2022-12-25T12:03:27.183Z,22.55
2022-12-25T12:06:00.456Z,20.80
2022-12-25T12:08:32.941Z,30.65
2022-12-25T12:11:20.121Z,22.45
2022-12-25T12:14:21.069Z,24.95
2022-12-25T12:16:50.314Z,45.58
2022-12-25T12:19:35.082Z,36.45
2022-12-25T12:22:05.783Z,36.65
2022-12-25T12:24:40.320Z,27.77
2022-12-25T12:27:26.616Z,24.55
2022-12-25T12:30:01.610Z,23.27
2022-12-25T12:32:49.575Z,22.60
2022-12-25T12:35:29.061Z,23.05
2022-12-25T12:38:01.222Z,30.80
2022-12-25T12:40:37.640Z,24.38
2022-12-25T12:43:08.892Z,24.23
2022-12-25T12:45:39.685Z,27.38
2022-12-25T12:48:17.733Z,23.95
2022-12-25T12:50:46.733Z,29.58
2022-12-25T12:53:32.279Z,26.15
2022-12-25T12:56:15.305Z,27.70
2022-12-25T12:58:50.094Z,26.70
2022-12-25T13:01:54.722Z,26.55
2022-12-25T13:04:53.784Z,30.92
2022-12-25T13:07:48.645Z,32.63
2022-12-25T13:10:30.837Z,42.63
2022-12-25T13:13:06.285Z,34.08
2022-12-25T13:18:08.046Z,32.67
2022-12-25T13:20:47.023Z,38.30
2022-12-25T13:23:27.889Z,33.58
2022-12-25T13:25:58.899Z,34.70
2022-12-25T13:28:34.636Z,37.72
2022-12-25T13:31:07.076Z,38.50
2022-12-25T13:33:36.766Z,33.03
2022-12-25T13:36:11.406Z,39.95
2022-12-25T13:38:45.219Z,37.97
2022-12-25T13:41:38.071Z,40.92
2022-12-25T13:44:20.706Z,42.22
2022-12-25T13:46:49.540Z,34.63
2022-12-25T13:49:20.720Z,33.40
2022-12-25T13:51:51.626Z,42.17
2022-12-25T13:54:20.817Z,39.35
2022-12-25T13:56:51.983Z,40.55
2022-12-25T13:59:26.810Z,39.83
2022-12-25T14:01:57.825Z,44.33
2022-12-25T14:04:26.731Z,40.20
2022-12-25T14:06:55.452Z,36.92
2022-12-25T14:09:24.511Z,32.20
2022-12-25T14:11:54.838Z,32.70
2022-12-25T14:14:26.853Z,36.47
2022-12-25T14:17:01.298Z,34.95
2022-12-25T14:19:32.694Z,33.00
2022-12-25T14:22:04.634Z,42.10
2022-12-25T14:24:35.827Z,44.10
2022-12-25T14:27:18.192Z,31.73
2022-12-25T14:29:50.603Z,38.50
2022-12-25T14:32:22.832Z,36.10
2022-12-25T14:34:56.438Z,37.97
2022-12-25T14:37:30.896Z,41.00
2022-12-25T14:40:05.197Z,35.03
2022-12-25T14:42:37.675Z,33.72
2022-12-25T14:45:27.780Z,33.72
2022-12-25T14:48:00.578Z,34.55
2022-12-25T14:50:33.446Z,27.60
2022-12-25T14:53:04.663Z,33.50
2022-12-25T14:55:33.789Z,32.17
2022-12-25T14:58:07.899Z,34.17
2022-12-25T15:00:40.425Z,30.58
2022-12-25T15:03:24.805Z,34.03
2022-12-25T15:06:01.726Z,38.17
2022-12-25T15:08:33.245Z,31.15
2022-12-25T15:11:05.892Z,29.20
2022-12-25T15:13:36.850Z,31.77
2022-12-25T15:16:15.691Z,29.40
2022-12-25T15:18:46.952Z,32.50
2022-12-25T15:21:19.618Z,33.20
2022-12-25T15:23:48.484Z,34.13
2022-12-25T15:26:17.877Z,40.08
2022-12-25T15:28:46.988Z,38.33
2022-12-25T15:31:25.211Z,41.50
2022-12-25T15:33:55.259Z,39.03
2022-12-25T15:36:25.065Z,39.63
2022-12-25T15:38:54.842Z,46.75
2022-12-25T15:41:46.475Z,44.63
2022-12-25T15:44:15.346Z,41.25
2022-12-25T15:46:46.221Z,42.35
2022-12-25T15:49:18.691Z,38.08
2022-12-25T15:51:48.350Z,40.42
2022-12-25T15:54:17.089Z,46.90
2022-12-25T15:56:51.166Z,45.28
2022-12-25T15:59:21.524Z,52.45
2022-12-25T16:01:54.334Z,43.92
2022-12-25T16:04:24.923Z,44.72
2022-12-25T16:06:55.635Z,45.40
2022-12-25T16:09:24.485Z,44.42
2022-12-25T16:11:53.633Z,43.97
2022-12-25T16:14:23.543Z,48.72
2022-12-25T16:16:54.375Z,50.10
2022-12-25T16:19:23.299Z,49.15
2022-12-25T16:21:52.080Z,49.90
2022-12-25T16:24:20.553Z,49.22
2022-12-25T16:26:49.222Z,50.47
2022-12-25T16:29:18.596Z,52.95
2022-12-25T16:31:47.262Z,48.22
2022-12-25T16:34:19.795Z,48.58
2022-12-25T16:36:48.283Z,49.45
2022-12-25T16:39:16.864Z,51.67
2022-12-25T16:41:45.518Z,124.75
2022-12-25T16:44:14.994Z,57.10
2022-12-25T16:46:45.479Z,54.72
2022-12-25T16:49:14.084Z,57.85
2022-12-25T16:51:44.381Z,67.05
2022-12-25T16:54:12.915Z,57.78
2022-12-25T16:56:41.642Z,63.63
2022-12-25T16:59:10.511Z,66.13
2022-12-25T17:01:44.279Z,80.00
2022-12-25T17:04:15.419Z,62.92
2022-12-25T17:06:47.681Z,65.85
2022-12-25T17:09:16.410Z,73.45
2022-12-25T17:11:45.003Z,67.25
2022-12-25T17:14:16.344Z,69.00
2022-12-25T17:16:45.572Z,71.75
2022-12-25T17:19:20.617Z,83.05
2022-12-25T17:21:57.536Z,79.63
2022-12-25T17:24:30.886Z,74.43
2022-12-25T17:27:01.109Z,86.45
2022-12-25T17:29:33.040Z,78.20
2022-12-25T17:32:01.835Z,118.93
2022-12-25T17:34:30.813Z,182.45
2022-12-25T17:37:01.048Z,126.45
2022-12-25T17:39:29.901Z,352.50
2022-12-25T17:41:58.878Z,223.15
2022-12-25T17:44:28.068Z,150.02
2022-12-25T17:46:57.533Z,112.25
2022-12-25T17:49:26.878Z,89.68
2022-12-25T17:51:55.642Z,90.93
2022-12-25T17:54:25.900Z,89.50
2022-12-25T17:56:54.854Z,78.95
2022-12-25T17:59:29.000Z,77.47
2022-12-25T18:01:58.205Z,83.30
2022-12-25T18:04:27.274Z,134.90
2022-12-25T18:06:56.187Z,113.63
2022-12-25T18:09:26.181Z,87.72
2022-12-25T18:11:55.083Z,72.78
2022-12-25T18:14:23.786Z,71.60
2022-12-25T18:16:52.986Z,72.47
2022-12-25T18:19:22.839Z,66.68
2022-12-25T18:21:52.652Z,73.15
2022-12-25T18:24:23.052Z,67.63
2022-12-25T18:26:53.713Z,66.88
2022-12-25T18:29:23.177Z,74.32
2022-12-25T18:31:54.319Z,68.55
2022-12-25T18:34:23.505Z,70.47
2022-12-25T18:36:52.008Z,72.22
2022-12-25T18:39:21.139Z,76.97
2022-12-25T18:42:07.576Z,71.68
2022-12-25T18:44:38.479Z,69.78
2022-12-25T18:47:07.368Z,71.10
2022-12-25T18:49:36.697Z,70.97
2022-12-25T18:52:49.712Z,76.07
2022-12-25T18:55:07.666Z,69.72
2022-12-25T18:57:41.161Z,91.63
2022-12-25T19:00:15.748Z,92.05
2022-12-25T19:02:45.515Z,101.63
2022-12-25T19:05:16.856Z,82.93
2022-12-25T19:07:47.475Z,80.25
2022-12-25T19:10:16.988Z,80.85
2022-12-25T19:12:46.696Z,83.38
2022-12-25T19:15:20.299Z,81.53
2022-12-25T19:17:50.880Z,85.63
2022-12-25T19:20:21.360Z,85.38
2022-12-25T19:22:50.845Z,90.70
2022-12-25T19:25:20.568Z,96.95
2022-12-25T19:27:54.570Z,92.45
2022-12-25T19:30:26.033Z,95.15
2022-12-25T19:33:01.795Z,101.00
2022-12-25T19:35:34.181Z,97.65
2022-12-25T19:38:09.907Z,105.72
2022-12-25T19:40:40.665Z,104.28
2022-12-25T19:43:12.693Z,109.63
2022-12-25T19:45:56.376Z,120.07
2022-12-25T19:48:31.275Z,112.35
2022-12-25T19:51:03.851Z,117.93
2022-12-25T19:53:36.433Z,105.15
2022-12-25T19:56:10.651Z,98.97
2022-12-25T19:58:43.008Z,110.90
2022-12-25T20:01:17.985Z,99.68
2022-12-25T20:03:49.603Z,106.28
2022-12-25T20:06:26.495Z,133.38
2022-12-25T20:08:57.775Z,135.68
2022-12-25T20:11:30.003Z,121.32
2022-12-25T20:14:04.317Z,117.22
2022-12-25T20:16:39.094Z,133.00
2022-12-25T20:19:16.119Z,161.57
2022-12-25T20:21:47.435Z,196.25
2022-12-25T20:24:18.119Z,229.20
2022-12-25T20:26:48.065Z,178.13
2022-12-25T20:29:20.751Z,142.55
2022-12-25T20:31:51.747Z,144.43
2022-12-25T20:34:24.639Z,122.15
2022-12-25T20:36:54.012Z,136.60
2022-12-25T20:39:26.300Z,192.70
2022-12-25T20:41:55.853Z,228.85
2022-12-25T20:44:25.486Z,240.20
2022-12-25T20:47:04.198Z,433.65
2022-12-25T20:49:36.458Z,284.00
2022-12-25T20:52:07.654Z,406.58
2022-12-25T20:54:38.087Z,325.10
2022-12-25T20:57:10.362Z,161.23
2022-12-25T20:59:44.259Z,203.93
2022-12-25T21:02:35.337Z,267.88
2022-12-25T21:05:05.797Z,290.08
2022-12-25T21:07:35.914Z,321.77
2022-12-25T21:10:07.655Z,250.73
2022-12-25T21:12:39.923Z,200.88
2022-12-25T21:15:15.667Z,162.43
2022-12-25T21:17:51.687Z,216.52
2022-12-25T21:20:28.285Z,173.63
2022-12-25T21:23:03.813Z,105.65
2022-12-25T21:25:33.954Z,100.57
2022-12-25T21:28:03.252Z,102.82
2022-12-25T21:30:32.067Z,100.30
2022-12-25T21:33:19.946Z,108.05
2022-12-25T21:35:48.832Z,104.78
2022-12-25T21:38:17.805Z,106.97
2022-12-25T21:40:46.951Z,107.60
2022-12-25T21:43:17.964Z,104.43
2022-12-25T21:45:48.160Z,101.72
2022-12-25T21:48:18.232Z,106.15
2022-12-25T21:51:04.119Z,116.20
2022-12-25T21:53:32.833Z,117.53
2022-12-25T21:56:03.097Z,119.68
2022-12-25T21:58:31.887Z,129.18
2022-12-25T22:01:04.426Z,135.32
2022-12-25T22:03:35.060Z,140.55
2022-12-25T22:06:21.837Z,170.13
2022-12-25T22:08:53.786Z,142.60
2022-12-25T22:11:39.879Z,128.35
2022-12-25T22:14:51.558Z,118.90
2022-12-25T22:17:41.575Z,127.72
2022-12-25T22:20:15.540Z,122.40
2022-12-25T22:22:44.578Z,123.53
2022-12-25T22:25:14.787Z,110.28
2022-12-25T22:27:46.292Z,123.88
2022-12-25T22:30:17.946Z,127.22
2022-12-25T22:32:50.679Z,114.45
2022-12-25T22:35:21.885Z,111.28
2022-12-25T22:37:50.768Z,108.70
2022-12-25T22:40:21.382Z,112.75
2022-12-25T22:42:49.884Z,120.95
2022-12-25T22:45:18.762Z,123.25
2022-12-25T22:47:47.356Z,111.18
2022-12-25T22:50:16.714Z,126.78
2022-12-25T22:52:47.336Z,119.38
2022-12-25T22:55:19.548Z,120.13
2022-12-25T22:57:49.270Z,118.78
2022-12-25T23:00:18.234Z,112.65
2022-12-25T23:02:47.119Z,123.95
2022-12-25T23:05:16.156Z,134.35
2022-12-25T23:07:46.105Z,123.20
2022-12-25T23:10:14.869Z,126.47
2022-12-25T23:13:00.812Z,115.88
2022-12-25T23:15:29.487Z,130.43
2022-12-25T23:18:15.461Z,120.07
2022-12-25T23:21:01.513Z,120.43
2022-12-25T23:23:49.051Z,114.07
2022-12-25T23:26:19.727Z,120.32
2022-12-25T23:29:14.607Z,117.72
2022-12-25T23:31:43.904Z,111.45
2022-12-25T23:34:12.693Z,109.03
2022-12-25T23:36:41.112Z,107.68
2022-12-25T23:39:11.045Z,103.28
2022-12-25T23:41:40.428Z,107.22
2022-12-25T23:44:10.477Z,102.38
2022-12-25T23:46:39.664Z,107.35
2022-12-25T23:49:09.809Z,106.45
2022-12-25T23:51:43.105Z,113.18
2022-12-25T23:54:16.082Z,105.70
2022-12-25T23:56:45.012Z,115.03
2022-12-25T23:59:14.271Z,107.97
